sensor_id;sensor_type;location;lat;lon;timestamp;temperature;humidity
79030;DHT22;68511;51.146;7.012;2024-03-23T00:53:42;14.50;63.90
79030;DHT22;68511;51.146;7.012;2024-03-23T00:54:43;14.50;63.90
79030;DHT22;68511;51.146;7.012;2024-03-23T00:55:44;14.50;63.90
79030;DHT22;68511;51.146;7.012;2024-03-23T00:56:44;14.50;63.90
79030;DHT22;68511;51.146;7.012;2024-03-23T00:57:45;14.50;63.90
79030;DHT22;68511;51.146;7.012;2024-03-23T00:58:45;14.50;63.90
79030;DHT22;68511;51.146;7.012;2024-03-23T00:59:45;14.50;63.90
79030;DHT22;68511;51.146;7.012;2024-03-23T01:00:46;14.50;63.90
79030;DHT22;68511;51.146;7.012;2024-03-23T01:01:46;14.50;63.90
79030;DHT22;68511;51.146;7.012;2024-03-23T01:02:47;14.50;63.90
79030;DHT22;68511;51.146;7.012;2024-03-23T01:03:47;14.50;63.80
79030;DHT22;68511;51.146;7.012;2024-03-23T01:04:48;14.50;63.90
79030;DHT22;68511;51.146;7.012;2024-03-23T01:05:48;14.50;63.90
79030;DHT22;68511;51.146;7.012;2024-03-23T01:06:49;14.50;63.90
79030;DHT22;68511;51.146;7.012;2024-03-23T01:07:49;14.50;64.60
79030;DHT22;68511;51.146;7.012;2024-03-23T01:08:50;14.50;63.80
79030;DHT22;68511;51.146;7.012;2024-03-23T01:09:50;14.50;63.90
79030;DHT22;68511;51.146;7.012;2024-03-23T01:10:56;14.50;63.80
79030;DHT22;68511;51.146;7.012;2024-03-23T01:11:56;14.50;63.80
79030;DHT22;68511;51.146;7.012;2024-03-23T01:12:57;14.50;63.90
79030;DHT22;68511;51.146;7.012;2024-03-23T01:13:57;14.50;63.80
79030;DHT22;68511;51.146;7.012;2024-03-23T01:14:58;14.50;63.80
79030;DHT22;68511;51.146;7.012;2024-03-23T01:15:58;14.50;63.80
79030;DHT22;68511;51.146;7.012;2024-03-23T01:16:59;14.50;63.80
79030;DHT22;68511;51.146;7.012;2024-03-23T01:17:59;14.50;63.80
79030;DHT22;68511;51.146;7.012;2024-03-23T01:19:00;14.50;63.80
79030;DHT22;68511;51.146;7.012;2024-03-23T01:20:00;14.50;63.80
79030;DHT22;68511;51.146;7.012;2024-03-23T01:21:01;14.50;63.80
79030;DHT22;68511;51.146;7.012;2024-03-23T01:22:01;14.50;63.80
79030;DHT22;68511;51.146;7.012;2024-03-23T01:23:02;14.50;63.80
79030;DHT22;68511;51.146;7.012;2024-03-23T01:24:02;14.50;63.80
79030;DHT22;68511;51.146;7.012;2024-03-23T01:25:03;14.50;63.80
79030;DHT22;68511;51.146;7.012;2024-03-23T01:26:03;14.50;63.80
79030;DHT22;68511;51.146;7.012;2024-03-23T01:27:04;14.50;63.80
79030;DHT22;68511;51.146;7.012;2024-03-23T01:28:04;14.50;63.80
79030;DHT22;68511;51.146;7.012;2024-03-23T01:29:06;14.50;63.80
79030;DHT22;68511;51.146;7.012;2024-03-23T01:30:07;14.50;63.80
79030;DHT22;68511;51.146;7.012;2024-03-23T01:31:08;14.50;63.90
79030;DHT22;68511;51.146;7.012;2024-03-23T01:32:08;14.50;63.80
79030;DHT22;68511;51.146;7.012;2024-03-23T01:33:08;14.50;63.90
79030;DHT22;68511;51.146;7.012;2024-03-23T01:34:09;14.50;63.80
79030;DHT22;68511;51.146;7.012;2024-03-23T01:35:09;14.50;63.80
79030;DHT22;68511;51.146;7.012;2024-03-23T01:36:10;14.50;63.80
79030;DHT22;68511;51.146;7.012;2024-03-23T01:37:10;14.50;63.80
79030;DHT22;68511;51.146;7.012;2024-03-23T01:38:11;14.50;63.80
79030;DHT22;68511;51.146;7.012;2024-03-23T01:39:11;14.50;63.80
79030;DHT22;68511;51.146;7.012;2024-03-23T01:40:12;14.50;63.80
79030;DHT22;68511;51.146;7.012;2024-03-23T01:41:13;14.50;63.80
79030;DHT22;68511;51.146;7.012;2024-03-23T01:42:14;14.50;63.90
79030;DHT22;68511;51.146;7.012;2024-03-23T01:43:14;14.50;63.80
79030;DHT22;68511;51.146;7.012;2024-03-23T01:44:15;14.50;63.80
79030;DHT22;68511;51.146;7.012;2024-03-23T01:45:16;14.40;63.70
79030;DHT22;68511;51.146;7.012;2024-03-23T01:46:16;14.50;63.80
79030;DHT22;68511;51.146;7.012;2024-03-23T01:47:17;14.50;63.80
79030;DHT22;68511;51.146;7.012;2024-03-23T01:48:17;14.50;63.80
79030;DHT22;68511;51.146;7.012;2024-03-23T01:49:18;14.50;63.80
79030;DHT22;68511;51.146;7.012;2024-03-23T01:50:22;14.50;63.80
79030;DHT22;68511;51.146;7.012;2024-03-23T01:51:23;14.50;63.80
79030;DHT22;68511;51.146;7.012;2024-03-23T01:52:24;14.40;63.70
79030;DHT22;68511;51.146;7.012;2024-03-23T01:53:25;14.50;63.80
79030;DHT22;68511;51.146;7.012;2024-03-23T01:54:25;14.40;63.70
79030;DHT22;68511;51.146;7.012;2024-03-23T01:55:26;14.50;63.80
79030;DHT22;68511;51.146;7.012;2024-03-23T01:56:27;14.40;63.70
79030;DHT22;68511;51.146;7.012;2024-03-23T01:57:27;14.40;63.70
79030;DHT22;68511;51.146;7.012;2024-03-23T01:58:28;14.40;63.70
79030;DHT22;68511;51.146;7.012;2024-03-23T01:59:28;14.40;63.70
79030;DHT22;68511;51.146;7.012;2024-03-23T02:00:29;14.40;63.70
79030;DHT22;68511;51.146;7.012;2024-03-23T02:01:29;14.40;63.70
79030;DHT22;68511;51.146;7.012;2024-03-23T02:02:30;14.40;63.70
79030;DHT22;68511;51.146;7.012;2024-03-23T02:03:31;14.40;63.70
79030;DHT22;68511;51.146;7.012;2024-03-23T02:04:31;14.50;63.80
79030;DHT22;68511;51.146;7.012;2024-03-23T02:05:32;14.50;63.80
79030;DHT22;68511;51.146;7.012;2024-03-23T02:06:32;14.40;63.70
79030;DHT22;68511;51.146;7.012;2024-03-23T02:07:33;14.50;63.80
79030;DHT22;68511;51.146;7.012;2024-03-23T02:08:34;14.50;63.80
79030;DHT22;68511;51.146;7.012;2024-03-23T02:09:35;14.40;63.70
79030;DHT22;68511;51.146;7.012;2024-03-23T02:10:35;14.40;63.70
79030;DHT22;68511;51.146;7.012;2024-03-23T02:11:36;14.50;63.80
79030;DHT22;68511;51.146;7.012;2024-03-23T02:12:36;14.50;63.70
79030;DHT22;68511;51.146;7.012;2024-03-23T02:13:37;14.40;63.60
79030;DHT22;68511;51.146;7.012;2024-03-23T02:14:37;14.50;63.70
79030;DHT22;68511;51.146;7.012;2024-03-23T02:15:39;14.50;63.70
79030;DHT22;68511;51.146;7.012;2024-03-23T02:16:39;14.50;63.70
79030;DHT22;68511;51.146;7.012;2024-03-23T02:17:39;14.50;63.70
79030;DHT22;68511;51.146;7.012;2024-03-23T02:18:40;14.50;63.70
79030;DHT22;68511;51.146;7.012;2024-03-23T02:19:40;14.50;63.70
79030;DHT22;68511;51.146;7.012;2024-03-23T02:20:41;14.50;63.70
79030;DHT22;68511;51.146;7.012;2024-03-23T02:21:41;14.50;63.70
79030;DHT22;68511;51.146;7.012;2024-03-23T02:22:42;14.40;63.60
79030;DHT22;68511;51.146;7.012;2024-03-23T02:23:42;14.50;63.70
79030;DHT22;68511;51.146;7.012;2024-03-23T02:24:43;14.50;63.70
79030;DHT22;68511;51.146;7.012;2024-03-23T02:25:44;14.50;63.70
79030;DHT22;68511;51.146;7.012;2024-03-23T02:26:44;14.50;63.70
79030;DHT22;68511;51.146;7.012;2024-03-23T02:27:45;14.50;63.60
79030;DHT22;68511;51.146;7.012;2024-03-23T02:28:45;14.50;63.70
79030;DHT22;68511;51.146;7.012;2024-03-23T02:29:46;14.50;63.70
79030;DHT22;68511;51.146;7.012;2024-03-23T02:30:46;14.50;63.70
79030;DHT22;68511;51.146;7.012;2024-03-23T02:31:46;14.40;63.50
79030;DHT22;68511;51.146;7.012;2024-03-23T02:32:47;14.50;63.60
79030;DHT22;68511;51.146;7.012;2024-03-23T02:33:47;14.50;63.60
79030;DHT22;68511;51.146;7.012;2024-03-23T02:34:48;14.40;63.50
79030;DHT22;68511;51.146;7.012;2024-03-23T02:35:48;14.40;63.50
79030;DHT22;68511;51.146;7.012;2024-03-23T02:36:49;14.50;63.60
79030;DHT22;68511;51.146;7.012;2024-03-23T02:37:49;14.40;63.50
79030;DHT22;68511;51.146;7.012;2024-03-23T02:38:50;14.50;63.60
79030;DHT22;68511;51.146;7.012;2024-03-23T02:39:50;14.40;63.60
79030;DHT22;68511;51.146;7.012;2024-03-23T02:40:51;14.40;63.50
79030;DHT22;68511;51.146;7.012;2024-03-23T02:41:51;14.40;63.50
79030;DHT22;68511;51.146;7.012;2024-03-23T02:42:52;14.40;63.50
79030;DHT22;68511;51.146;7.012;2024-03-23T02:43:52;14.40;63.50
79030;DHT22;68511;51.146;7.012;2024-03-23T02:44:53;14.40;63.60
79030;DHT22;68511;51.146;7.012;2024-03-23T02:45:54;14.40;63.60
79030;DHT22;68511;51.146;7.012;2024-03-23T02:46:54;14.40;63.50
79030;DHT22;68511;51.146;7.012;2024-03-23T02:47:55;14.40;63.50
79030;DHT22;68511;51.146;7.012;2024-03-23T02:48:55;14.40;63.50
79030;DHT22;68511;51.146;7.012;2024-03-23T02:49:57;14.40;63.50
79030;DHT22;68511;51.146;7.012;2024-03-23T02:50:57;14.40;63.50
79030;DHT22;68511;51.146;7.012;2024-03-23T02:51:57;14.40;63.50
79030;DHT22;68511;51.146;7.012;2024-03-23T02:52:58;14.40;63.50
79030;DHT22;68511;51.146;7.012;2024-03-23T02:53:58;14.40;63.50
79030;DHT22;68511;51.146;7.012;2024-03-23T02:54:59;14.40;63.50
79030;DHT22;68511;51.146;7.012;2024-03-23T02:55:59;14.40;63.50
79030;DHT22;68511;51.146;7.012;2024-03-23T02:57:00;14.40;63.50
79030;DHT22;68511;51.146;7.012;2024-03-23T02:58:00;14.40;63.50
79030;DHT22;68511;51.146;7.012;2024-03-23T02:59:02;14.40;63.50
79030;DHT22;68511;51.146;7.012;2024-03-23T03:00:02;14.40;64.20
79030;DHT22;68511;51.146;7.012;2024-03-23T03:01:03;14.40;63.40
79030;DHT22;68511;51.146;7.012;2024-03-23T03:02:04;14.40;63.50
79030;DHT22;68511;51.146;7.012;2024-03-23T03:03:05;14.40;63.50
79030;DHT22;68511;51.146;7.012;2024-03-23T03:04:05;14.40;63.50
79030;DHT22;68511;51.146;7.012;2024-03-23T03:05:06;14.40;63.50
79030;DHT22;68511;51.146;7.012;2024-03-23T03:06:06;14.40;63.50
79030;DHT22;68511;51.146;7.012;2024-03-23T03:07:07;14.40;63.40
79030;DHT22;68511;51.146;7.012;2024-03-23T03:08:07;14.40;63.50
79030;DHT22;68511;51.146;7.012;2024-03-23T03:09:08;14.40;63.40
79030;DHT22;68511;51.146;7.012;2024-03-23T03:10:08;14.40;63.40
79030;DHT22;68511;51.146;7.012;2024-03-23T03:11:11;14.40;63.40
79030;DHT22;68511;51.146;7.012;2024-03-23T03:12:11;14.40;63.40
79030;DHT22;68511;51.146;7.012;2024-03-23T03:13:12;14.40;63.50
79030;DHT22;68511;51.146;7.012;2024-03-23T03:14:12;14.40;63.50
79030;DHT22;68511;51.146;7.012;2024-03-23T03:15:13;14.40;63.50
79030;DHT22;68511;51.146;7.012;2024-03-23T03:16:13;14.40;63.50
79030;DHT22;68511;51.146;7.012;2024-03-23T03:17:14;14.40;63.50
79030;DHT22;68511;51.146;7.012;2024-03-23T03:18:15;14.40;64.10
79030;DHT22;68511;51.146;7.012;2024-03-23T03:19:15;14.40;63.40
79030;DHT22;68511;51.146;7.012;2024-03-23T03:20:16;14.40;63.40
79030;DHT22;68511;51.146;7.012;2024-03-23T03:21:18;14.40;63.40
79030;DHT22;68511;51.146;7.012;2024-03-23T03:22:19;14.40;63.30
79030;DHT22;68511;51.146;7.012;2024-03-23T03:23:20;14.40;63.40
79030;DHT22;68511;51.146;7.012;2024-03-23T03:24:20;14.40;63.40
79030;DHT22;68511;51.146;7.012;2024-03-23T03:25:21;14.40;63.40
79030;DHT22;68511;51.146;7.012;2024-03-23T03:26:22;14.40;63.40
79030;DHT22;68511;51.146;7.012;2024-03-23T03:27:22;14.40;63.40
79030;DHT22;68511;51.146;7.012;2024-03-23T03:28:23;14.40;63.40
79030;DHT22;68511;51.146;7.012;2024-03-23T03:29:24;14.40;63.40
79030;DHT22;68511;51.146;7.012;2024-03-23T03:30:24;14.40;63.40
79030;DHT22;68511;51.146;7.012;2024-03-23T03:31:25;14.40;63.40
79030;DHT22;68511;51.146;7.012;2024-03-23T03:32:25;14.40;63.40
79030;DHT22;68511;51.146;7.012;2024-03-23T03:33:26;14.40;63.40
79030;DHT22;68511;51.146;7.012;2024-03-23T03:34:27;14.40;63.40
79030;DHT22;68511;51.146;7.012;2024-03-23T03:35:29;14.40;63.40
79030;DHT22;68511;51.146;7.012;2024-03-23T03:36:30;14.40;63.40
79030;DHT22;68511;51.146;7.012;2024-03-23T03:37:30;14.40;63.40
79030;DHT22;68511;51.146;7.012;2024-03-23T03:38:31;14.40;63.40
79030;DHT22;68511;51.146;7.012;2024-03-23T03:39:31;14.40;63.30
79030;DHT22;68511;51.146;7.012;2024-03-23T03:40:32;14.40;63.40
79030;DHT22;68511;51.146;7.012;2024-03-23T03:41:32;14.40;63.40
79030;DHT22;68511;51.146;7.012;2024-03-23T03:42:33;14.40;63.40
79030;DHT22;68511;51.146;7.012;2024-03-23T03:43:34;14.40;63.30
79030;DHT22;68511;51.146;7.012;2024-03-23T03:44:35;14.40;63.40
79030;DHT22;68511;51.146;7.012;2024-03-23T03:45:37;14.40;63.30
79030;DHT22;68511;51.146;7.012;2024-03-23T03:46:37;14.40;63.30
79030;DHT22;68511;51.146;7.012;2024-03-23T03:47:37;14.40;63.30
79030;DHT22;68511;51.146;7.012;2024-03-23T03:48:38;14.40;63.30
79030;DHT22;68511;51.146;7.012;2024-03-23T03:49:38;14.40;63.40
79030;DHT22;68511;51.146;7.012;2024-03-23T03:50:39;14.40;63.40
79030;DHT22;68511;51.146;7.012;2024-03-23T03:51:39;14.40;63.30
79030;DHT22;68511;51.146;7.012;2024-03-23T03:52:39;14.40;63.30
79030;DHT22;68511;51.146;7.012;2024-03-23T03:53:40;14.40;63.40
79030;DHT22;68511;51.146;7.012;2024-03-23T03:54:41;14.40;63.40
79030;DHT22;68511;51.146;7.012;2024-03-23T03:55:41;14.40;63.80
79030;DHT22;68511;51.146;7.012;2024-03-23T03:56:42;14.40;63.40
79030;DHT22;68511;51.146;7.012;2024-03-23T03:57:43;14.40;63.30
79030;DHT22;68511;51.146;7.012;2024-03-23T03:58:43;14.40;63.30
79030;DHT22;68511;51.146;7.012;2024-03-23T03:59:44;14.40;63.40
79030;DHT22;68511;51.146;7.012;2024-03-23T04:00:44;14.40;63.30
79030;DHT22;68511;51.146;7.012;2024-03-23T04:01:45;14.40;63.30
79030;DHT22;68511;51.146;7.012;2024-03-23T04:02:45;14.40;63.30
79030;DHT22;68511;51.146;7.012;2024-03-23T04:03:46;14.40;63.30
79030;DHT22;68511;51.146;7.012;2024-03-23T04:04:48;14.40;63.30
79030;DHT22;68511;51.146;7.012;2024-03-23T04:05:52;14.40;63.30
79030;DHT22;68511;51.146;7.012;2024-03-23T04:07:02;14.40;63.30
79030;DHT22;68511;51.146;7.012;2024-03-23T04:08:02;14.40;63.30
79030;DHT22;68511;51.146;7.012;2024-03-23T04:09:03;14.40;63.30
79030;DHT22;68511;51.146;7.012;2024-03-23T04:10:04;14.40;63.30
79030;DHT22;68511;51.146;7.012;2024-03-23T04:11:07;14.40;63.30
79030;DHT22;68511;51.146;7.012;2024-03-23T04:12:08;14.40;63.30
79030;DHT22;68511;51.146;7.012;2024-03-23T04:13:09;14.40;63.30
79030;DHT22;68511;51.146;7.012;2024-03-23T04:14:09;14.40;63.30
79030;DHT22;68511;51.146;7.012;2024-03-23T04:15:10;14.40;63.30
79030;DHT22;68511;51.146;7.012;2024-03-23T04:16:10;14.40;63.30
79030;DHT22;68511;51.146;7.012;2024-03-23T04:17:11;14.40;63.30
79030;DHT22;68511;51.146;7.012;2024-03-23T04:18:11;14.40;63.30
79030;DHT22;68511;51.146;7.012;2024-03-23T04:19:12;14.40;63.20
79030;DHT22;68511;51.146;7.012;2024-03-23T04:20:12;14.40;63.20
79030;DHT22;68511;51.146;7.012;2024-03-23T04:21:16;14.40;63.20
79030;DHT22;68511;51.146;7.012;2024-03-23T04:22:17;14.40;63.20
79030;DHT22;68511;51.146;7.012;2024-03-23T04:23:18;14.40;63.20
79030;DHT22;68511;51.146;7.012;2024-03-23T04:24:18;14.40;63.10
79030;DHT22;68511;51.146;7.012;2024-03-23T04:25:21;14.40;63.20
79030;DHT22;68511;51.146;7.012;2024-03-23T04:26:21;14.40;63.10
79030;DHT22;68511;51.146;7.012;2024-03-23T04:27:22;14.40;63.10
79030;DHT22;68511;51.146;7.012;2024-03-23T04:28:22;14.40;63.20
79030;DHT22;68511;51.146;7.012;2024-03-23T04:29:23;14.40;63.20
79030;DHT22;68511;51.146;7.012;2024-03-23T04:30:23;14.40;63.20
79030;DHT22;68511;51.146;7.012;2024-03-23T04:31:25;14.40;63.20
79030;DHT22;68511;51.146;7.012;2024-03-23T04:32:25;14.40;63.20
79030;DHT22;68511;51.146;7.012;2024-03-23T04:33:26;14.40;63.20
79030;DHT22;68511;51.146;7.012;2024-03-23T04:34:26;14.40;63.20
79030;DHT22;68511;51.146;7.012;2024-03-23T04:35:27;14.40;63.20
79030;DHT22;68511;51.146;7.012;2024-03-23T04:36:27;14.40;63.20
79030;DHT22;68511;51.146;7.012;2024-03-23T04:37:28;14.40;63.20
79030;DHT22;68511;51.146;7.012;2024-03-23T04:38:29;14.40;63.20
79030;DHT22;68511;51.146;7.012;2024-03-23T04:39:29;14.40;63.20
79030;DHT22;68511;51.146;7.012;2024-03-23T04:40:30;14.40;63.10
79030;DHT22;68511;51.146;7.012;2024-03-23T04:41:30;14.40;63.20
79030;DHT22;68511;51.146;7.012;2024-03-23T04:42:31;14.40;63.20
79030;DHT22;68511;51.146;7.012;2024-03-23T04:43:31;14.40;63.20
79030;DHT22;68511;51.146;7.012;2024-03-23T04:44:32;14.40;63.20
79030;DHT22;68511;51.146;7.012;2024-03-23T04:45:32;14.40;63.20
79030;DHT22;68511;51.146;7.012;2024-03-23T04:46:33;14.40;63.20
79030;DHT22;68511;51.146;7.012;2024-03-23T04:47:33;14.40;63.20
79030;DHT22;68511;51.146;7.012;2024-03-23T04:48:35;14.40;63.20
79030;DHT22;68511;51.146;7.012;2024-03-23T04:49:36;14.40;63.20
79030;DHT22;68511;51.146;7.012;2024-03-23T04:50:37;14.40;63.20
79030;DHT22;68511;51.146;7.012;2024-03-23T04:51:37;14.40;63.20
79030;DHT22;68511;51.146;7.012;2024-03-23T04:52:38;14.40;63.20
79030;DHT22;68511;51.146;7.012;2024-03-23T04:53:39;14.40;63.20
79030;DHT22;68511;51.146;7.012;2024-03-23T04:54:39;14.40;63.20
79030;DHT22;68511;51.146;7.012;2024-03-23T04:55:40;14.40;63.20
79030;DHT22;68511;51.146;7.012;2024-03-23T04:56:42;14.40;63.20
79030;DHT22;68511;51.146;7.012;2024-03-23T04:57:43;14.40;63.20
79030;DHT22;68511;51.146;7.012;2024-03-23T04:58:43;14.40;63.20
79030;DHT22;68511;51.146;7.012;2024-03-23T04:59:44;14.40;63.20
79030;DHT22;68511;51.146;7.012;2024-03-23T05:00:44;14.40;63.20
79030;DHT22;68511;51.146;7.012;2024-03-23T05:01:45;14.40;63.20
79030;DHT22;68511;51.146;7.012;2024-03-23T05:02:45;14.40;63.20
79030;DHT22;68511;51.146;7.012;2024-03-23T05:03:46;14.40;63.10
79030;DHT22;68511;51.146;7.012;2024-03-23T05:04:46;14.40;63.20
79030;DHT22;68511;51.146;7.012;2024-03-23T05:05:47;14.40;63.20
79030;DHT22;68511;51.146;7.012;2024-03-23T05:06:48;14.40;63.20
79030;DHT22;68511;51.146;7.012;2024-03-23T05:07:49;14.40;63.20
79030;DHT22;68511;51.146;7.012;2024-03-23T05:08:49;14.40;63.20
79030;DHT22;68511;51.146;7.012;2024-03-23T05:09:49;14.40;63.20
79030;DHT22;68511;51.146;7.012;2024-03-23T05:10:50;14.40;63.20
79030;DHT22;68511;51.146;7.012;2024-03-23T05:11:50;14.40;63.20
79030;DHT22;68511;51.146;7.012;2024-03-23T05:12:51;14.40;63.20
79030;DHT22;68511;51.146;7.012;2024-03-23T05:13:52;14.40;63.20
79030;DHT22;68511;51.146;7.012;2024-03-23T05:14:52;14.40;63.20
79030;DHT22;68511;51.146;7.012;2024-03-23T05:15:56;14.40;63.30
79030;DHT22;68511;51.146;7.012;2024-03-23T05:16:56;14.40;63.20
79030;DHT22;68511;51.146;7.012;2024-03-23T05:17:57;14.40;63.20
79030;DHT22;68511;51.146;7.012;2024-03-23T05:18:57;14.40;63.20
79030;DHT22;68511;51.146;7.012;2024-03-23T05:19:58;14.40;63.10
79030;DHT22;68511;51.146;7.012;2024-03-23T05:20:58;14.40;63.10
79030;DHT22;68511;51.146;7.012;2024-03-23T05:21:59;14.40;63.10
79030;DHT22;68511;51.146;7.012;2024-03-23T05:22:59;14.40;63.10
79030;DHT22;68511;51.146;7.012;2024-03-23T05:24:00;14.40;63.10
79030;DHT22;68511;51.146;7.012;2024-03-23T05:25:01;14.40;63.10
79030;DHT22;68511;51.146;7.012;2024-03-23T05:26:01;14.40;63.10
79030;DHT22;68511;51.146;7.012;2024-03-23T05:27:02;14.40;63.10
79030;DHT22;68511;51.146;7.012;2024-03-23T05:28:03;14.40;63.20
79030;DHT22;68511;51.146;7.012;2024-03-23T05:29:03;14.40;63.10
79030;DHT22;68511;51.146;7.012;2024-03-23T05:30:04;14.40;63.20
79030;DHT22;68511;51.146;7.012;2024-03-23T05:31:06;14.40;63.20
79030;DHT22;68511;51.146;7.012;2024-03-23T05:32:07;14.40;63.20
79030;DHT22;68511;51.146;7.012;2024-03-23T05:33:07;14.40;63.20
79030;DHT22;68511;51.146;7.012;2024-03-23T05:34:08;14.40;63.20
79030;DHT22;68511;51.146;7.012;2024-03-23T05:35:09;14.40;63.20
79030;DHT22;68511;51.146;7.012;2024-03-23T05:36:09;14.40;63.20
79030;DHT22;68511;51.146;7.012;2024-03-23T05:37:11;14.40;63.10
79030;DHT22;68511;51.146;7.012;2024-03-23T05:38:12;14.40;63.10
79030;DHT22;68511;51.146;7.012;2024-03-23T05:39:12;14.40;63.10
79030;DHT22;68511;51.146;7.012;2024-03-23T05:40:16;14.40;63.20
79030;DHT22;68511;51.146;7.012;2024-03-23T05:41:17;14.40;63.10
79030;DHT22;68511;51.146;7.012;2024-03-23T05:42:17;14.40;63.10
79030;DHT22;68511;51.146;7.012;2024-03-23T05:43:18;14.40;63.90
79030;DHT22;68511;51.146;7.012;2024-03-23T05:44:18;14.40;63.10
79030;DHT22;68511;51.146;7.012;2024-03-23T05:45:19;14.40;63.20
79030;DHT22;68511;51.146;7.012;2024-03-23T05:46:19;14.40;63.20
79030;DHT22;68511;51.146;7.012;2024-03-23T05:47:20;14.40;63.20
79030;DHT22;68511;51.146;7.012;2024-03-23T05:48:20;14.40;63.20
79030;DHT22;68511;51.146;7.012;2024-03-23T05:49:21;14.40;63.20
79030;DHT22;68511;51.146;7.012;2024-03-23T05:50:21;14.30;63.10
79030;DHT22;68511;51.146;7.012;2024-03-23T05:51:22;14.30;63.10
79030;DHT22;68511;51.146;7.012;2024-03-23T05:52:22;14.30;63.10
79030;DHT22;68511;51.146;7.012;2024-03-23T05:53:25;14.30;63.10
79030;DHT22;68511;51.146;7.012;2024-03-23T05:54:26;14.30;63.10
79030;DHT22;68511;51.146;7.012;2024-03-23T05:55:26;14.30;63.10
79030;DHT22;68511;51.146;7.012;2024-03-23T05:56:27;14.40;63.10
79030;DHT22;68511;51.146;7.012;2024-03-23T05:57:28;14.40;63.20
79030;DHT22;68511;51.146;7.012;2024-03-23T05:58:28;14.30;63.10
79030;DHT22;68511;51.146;7.012;2024-03-23T05:59:28;14.30;63.00
79030;DHT22;68511;51.146;7.012;2024-03-23T06:00:29;14.30;63.00
79030;DHT22;68511;51.146;7.012;2024-03-23T06:01:29;14.30;63.00
79030;DHT22;68511;51.146;7.012;2024-03-23T06:02:32;14.30;63.10
79030;DHT22;68511;51.146;7.012;2024-03-23T06:03:33;14.30;63.00
79030;DHT22;68511;51.146;7.012;2024-03-23T06:04:35;14.30;63.00
79030;DHT22;68511;51.146;7.012;2024-03-23T06:05:36;14.30;63.00
79030;DHT22;68511;51.146;7.012;2024-03-23T06:06:37;14.30;63.00
79030;DHT22;68511;51.146;7.012;2024-03-23T06:07:37;14.30;63.00
79030;DHT22;68511;51.146;7.012;2024-03-23T06:08:38;14.30;63.00
79030;DHT22;68511;51.146;7.012;2024-03-23T06:09:39;14.30;63.00
79030;DHT22;68511;51.146;7.012;2024-03-23T06:10:39;14.30;63.00
79030;DHT22;68511;51.146;7.012;2024-03-23T06:11:40;14.30;63.00
79030;DHT22;68511;51.146;7.012;2024-03-23T06:12:40;14.30;63.00
79030;DHT22;68511;51.146;7.012;2024-03-23T06:13:40;14.30;63.00
79030;DHT22;68511;51.146;7.012;2024-03-23T06:14:41;14.30;63.00
79030;DHT22;68511;51.146;7.012;2024-03-23T06:15:41;14.30;63.00
79030;DHT22;68511;51.146;7.012;2024-03-23T06:16:42;14.40;63.10
79030;DHT22;68511;51.146;7.012;2024-03-23T06:17:42;14.30;63.00
79030;DHT22;68511;51.146;7.012;2024-03-23T06:18:43;14.40;63.10
79030;DHT22;68511;51.146;7.012;2024-03-23T06:19:43;14.30;63.00
79030;DHT22;68511;51.146;7.012;2024-03-23T06:20:44;14.40;63.10
79030;DHT22;68511;51.146;7.012;2024-03-23T06:21:45;14.40;63.10
79030;DHT22;68511;51.146;7.012;2024-03-23T06:22:45;14.30;63.00
79030;DHT22;68511;51.146;7.012;2024-03-23T06:23:46;14.30;63.00
79030;DHT22;68511;51.146;7.012;2024-03-23T06:24:51;14.30;62.90
79030;DHT22;68511;51.146;7.012;2024-03-23T06:25:51;14.30;63.00
79030;DHT22;68511;51.146;7.012;2024-03-23T06:26:52;14.30;63.00
79030;DHT22;68511;51.146;7.012;2024-03-23T06:27:52;14.30;62.90
79030;DHT22;68511;51.146;7.012;2024-03-23T06:28:52;14.30;62.90
79030;DHT22;68511;51.146;7.012;2024-03-23T06:29:53;14.40;63.00
79030;DHT22;68511;51.146;7.012;2024-03-23T06:30:53;14.30;62.90
79030;DHT22;68511;51.146;7.012;2024-03-23T06:31:54;14.40;63.00
79030;DHT22;68511;51.146;7.012;2024-03-23T06:32:55;14.30;62.90
79030;DHT22;68511;51.146;7.012;2024-03-23T06:33:55;14.30;62.90
79030;DHT22;68511;51.146;7.012;2024-03-23T06:34:56;14.30;62.90
79030;DHT22;68511;51.146;7.012;2024-03-23T06:35:56;14.30;62.90
79030;DHT22;68511;51.146;7.012;2024-03-23T06:36:57;14.30;63.00
79030;DHT22;68511;51.146;7.012;2024-03-23T06:37:58;14.30;63.30
79030;DHT22;68511;51.146;7.012;2024-03-23T06:38:58;14.30;62.90
79030;DHT22;68511;51.146;7.012;2024-03-23T06:39:59;14.30;62.80
79030;DHT22;68511;51.146;7.012;2024-03-23T06:41:00;14.30;62.80
79030;DHT22;68511;51.146;7.012;2024-03-23T06:42:02;14.30;62.80
79030;DHT22;68511;51.146;7.012;2024-03-23T06:43:03;14.30;62.90
79030;DHT22;68511;51.146;7.012;2024-03-23T06:44:04;14.40;63.00
79030;DHT22;68511;51.146;7.012;2024-03-23T06:45:04;14.30;62.90
79030;DHT22;68511;51.146;7.012;2024-03-23T06:46:05;14.30;62.80
79030;DHT22;68511;51.146;7.012;2024-03-23T06:47:06;14.40;63.00
79030;DHT22;68511;51.146;7.012;2024-03-23T06:48:06;14.30;62.90
79030;DHT22;68511;51.146;7.012;2024-03-23T06:49:08;14.30;62.90
79030;DHT22;68511;51.146;7.012;2024-03-23T06:50:08;14.30;62.80
79030;DHT22;68511;51.146;7.012;2024-03-23T06:51:10;14.30;62.80
79030;DHT22;68511;51.146;7.012;2024-03-23T06:52:11;14.30;62.80
79030;DHT22;68511;51.146;7.012;2024-03-23T06:53:11;14.40;63.00
79030;DHT22;68511;51.146;7.012;2024-03-23T06:54:12;14.30;62.80
79030;DHT22;68511;51.146;7.012;2024-03-23T06:55:12;14.30;62.80
79030;DHT22;68511;51.146;7.012;2024-03-23T06:56:13;14.40;63.00
79030;DHT22;68511;51.146;7.012;2024-03-23T06:57:13;14.30;62.80
79030;DHT22;68511;51.146;7.012;2024-03-23T06:58:14;14.40;63.00
79030;DHT22;68511;51.146;7.012;2024-03-23T06:59:14;14.40;62.90
79030;DHT22;68511;51.146;7.012;2024-03-23T07:00:15;14.40;63.00
79030;DHT22;68511;51.146;7.012;2024-03-23T07:01:16;14.40;63.00
79030;DHT22;68511;51.146;7.012;2024-03-23T07:02:16;14.30;62.80
79030;DHT22;68511;51.146;7.012;2024-03-23T07:03:17;14.30;62.80
79030;DHT22;68511;51.146;7.012;2024-03-23T07:04:17;14.40;63.00
79030;DHT22;68511;51.146;7.012;2024-03-23T07:05:18;14.30;62.90
79030;DHT22;68511;51.146;7.012;2024-03-23T07:06:19;14.30;62.80
79030;DHT22;68511;51.146;7.012;2024-03-23T07:07:19;14.30;62.80
79030;DHT22;68511;51.146;7.012;2024-03-23T07:08:20;14.40;63.00
79030;DHT22;68511;51.146;7.012;2024-03-23T07:09:22;14.30;62.90
79030;DHT22;68511;51.146;7.012;2024-03-23T07:10:26;14.30;62.80
79030;DHT22;68511;51.146;7.012;2024-03-23T07:11:26;14.40;63.00
79030;DHT22;68511;51.146;7.012;2024-03-23T07:12:27;14.30;62.80
79030;DHT22;68511;51.146;7.012;2024-03-23T07:13:27;14.30;62.80
79030;DHT22;68511;51.146;7.012;2024-03-23T07:14:28;14.30;62.80
79030;DHT22;68511;51.146;7.012;2024-03-23T07:15:28;14.40;63.00
79030;DHT22;68511;51.146;7.012;2024-03-23T07:16:29;14.30;62.80